PAOH

Details ICAO PAOH (HNH)
Name Hoonah
Region USA (Alaska)
Timezone America/Juneau (UTC-9.0)
Plans Departing 7
Arriving 8
Stats Elevation 30 ft / 9 m (AMSL)
Location 58.097715° -135.405136°
Runways 1
Magnetic Variation 19.004° E
Sunrise 2017-12-14 17:43:04 UTC / 2017-12-14 08:43:04 Local
Sunset 2017-12-15 00:12:41 UTC / 2017-12-14 15:12:41 Local
Advertisement - Login to hide

Runways

ID Width Length Bearing (true) Bearing (mag) Surface Threshold Offset Overrun Length
05 75 ft / 23 m 3,003 ft / 915 m 77.99° 58.99° Asphalt 0 ft / 0 m 0 ft / 0 m
23 75 ft / 23 m 3,003 ft / 915 m 258.01° 239.01° Asphalt 0 ft / 0 m 0 ft / 0 m

Map

Weather


0- 5 10 15 20 25 30 35+ Temperature / ° C

Clouds and Precipitation
Forecast for 2017-12-15 00:00 UTC. Updated 10 minutes ago

Ground ~20,000 ft ~40,000 ft Winds

METAR

PAOH 141856Z AUTO 27005KT 9SM -RA FEW025 BKN032 OVC043 08/07 A2972 RMK AO2 SLP066 P0005 T00780067

TAF

Not found
Warning: Do not use this data for real-world aviation or navigation. No guarantee of current accuracy is given.